Time;durP1;ratioP1;P1;durP2;ratioP2;P2;SDS_P1;SDS_P2;PMS_P1;PMS_P2;Temp;Humidity;BMP_temperature;BMP_pressure;BME280_temperature;BME280_humidity;BME280_pressure;Samples;Min_cycle;Max_cycle;Signal;HPM_P1;HPM_P2
2023/02/20 00:02:24;;;;;;;5.80;4.15;;;7.10;99.90;;;;;;5090871;28;20219;-83
2023/02/20 00:04:52;;;;;;;5.90;4.35;;;7.00;99.90;;;;;;5086814;28;20577;-82
2023/02/20 00:07:19;;;;;;;6.95;5.95;;;7.10;99.90;;;;;;5089805;28;20279;-82
2023/02/20 00:09:47;;;;;;;5.55;5.05;;;7.10;99.90;;;;;;5085071;28;20243;-82
2023/02/20 00:12:15;;;;;;;6.78;4.65;;;7.10;99.90;;;;;;5088298;28;20223;-77
2023/02/20 00:14:42;;;;;;;5.63;4.05;;;7.10;99.90;;;;;;5085526;28;20553;-77
2023/02/20 00:17:09;;;;;;;4.78;4.38;;;7.10;99.90;;;;;;5077166;28;20227;-82
2023/02/20 00:19:39;;;;;;;4.53;3.67;;;7.10;99.90;;;;;;5076657;28;20273;-76
2023/02/20 00:22:07;;;;;;;4.65;4.25;;;7.00;99.90;;;;;;5075740;28;20251;-77
2023/02/20 00:24:34;;;;;;;4.85;4.20;;;7.00;99.90;;;;;;5075996;28;20269;-82
2023/02/20 00:27:01;;;;;;;5.35;4.60;;;7.00;99.90;;;;;;5075909;28;20236;-82
2023/02/20 00:29:30;;;;;;;9.13;5.55;;;7.00;99.90;;;;;;5076703;28;20712;-77
2023/02/20 00:32:01;;;;;;;6.45;4.78;;;7.00;99.90;;;;;;5075683;28;20583;-83
2023/02/20 00:34:29;;;;;;;13.02;5.32;;;7.00;99.90;;;;;;5075938;28;20224;-83
2023/02/20 00:36:56;;;;;;;6.63;4.38;;;7.00;99.90;;;;;;5077980;28;20224;-77
2023/02/20 00:39:23;;;;;;;6.60;4.45;;;7.00;99.90;;;;;;5076659;28;20258;-82
2023/02/20 00:41:50;;;;;;;8.65;4.82;;;7.00;99.90;;;;;;5075312;28;20224;-81
2023/02/20 00:44:18;;;;;;;4.05;3.60;;;7.00;99.90;;;;;;5077013;28;20722;-77
2023/02/20 00:46:47;;;;;;;5.78;4.38;;;7.00;99.90;;;;;;5067121;28;20560;-82
2023/02/20 00:49:18;;;;;;;9.60;4.70;;;7.00;99.90;;;;;;5075592;28;20236;-82
2023/02/20 00:51:51;;;;;;;5.68;4.57;;;7.00;99.90;;;;;;5076373;28;20314;-77
2023/02/20 00:54:21;;;;;;;7.78;4.55;;;7.00;99.90;;;;;;5056795;28;20220;-76
2023/02/20 00:56:50;;;;;;;5.20;4.65;;;7.00;99.90;;;;;;5075072;28;20224;-76
2023/02/20 00:59:18;;;;;;;5.95;5.38;;;7.00;99.90;;;;;;5074230;28;20273;-82
2023/02/20 01:01:46;;;;;;;8.73;4.85;;;7.00;99.90;;;;;;5075197;28;20224;-76
2023/02/20 01:04:14;;;;;;;5.13;4.63;;;7.00;99.90;;;;;;5070458;28;20258;-77
2023/02/20 01:06:46;;;;;;;6.65;5.00;;;6.90;99.90;;;;;;5074954;28;20228;-76
2023/02/20 01:09:14;;;;;;;7.43;4.70;;;6.90;99.90;;;;;;5074520;28;20228;-82
2023/02/20 01:11:42;;;;;;;10.27;4.50;;;6.90;99.90;;;;;;5075696;28;20228;-77
2023/02/20 01:14:09;;;;;;;5.63;4.65;;;6.90;99.90;;;;;;5074314;28;20311;-77
2023/02/20 01:16:36;;;;;;;5.20;4.38;;;6.90;99.90;;;;;;5074849;28;20224;-76
2023/02/20 01:19:05;;;;;;;7.10;4.93;;;6.90;99.90;;;;;;5074929;28;20228;-82
2023/02/20 01:21:32;;;;;;;10.50;5.22;;;6.90;99.90;;;;;;5075152;28;20236;-82
2023/02/20 01:23:59;;;;;;;5.32;4.50;;;6.90;99.90;;;;;;5075451;28;20255;-76
2023/02/20 01:26:27;;;;;;;6.63;5.93;;;6.90;99.90;;;;;;5074315;28;20234;-77
2023/02/20 01:28:54;;;;;;;5.07;4.57;;;6.90;99.90;;;;;;5074935;28;20238;-82
2023/02/20 01:31:22;;;;;;;7.85;5.32;;;6.90;99.90;;;;;;5073633;28;20285;-82
2023/02/20 01:33:58;;;;;;;6.93;4.30;;;7.00;99.90;;;;;;5076047;28;20563;-84
2023/02/20 01:36:27;;;;;;;7.30;4.50;;;7.00;99.90;;;;;;5063999;28;20228;-83
2023/02/20 01:38:54;;;;;;;5.32;4.50;;;7.00;99.90;;;;;;5048903;28;20263;-77
2023/02/20 01:41:23;;;;;;;7.93;4.55;;;7.00;99.90;;;;;;5054484;28;20224;-82
2023/02/20 01:43:50;;;;;;;7.20;6.00;;;7.00;99.90;;;;;;5055413;28;20299;-77
2023/02/20 01:46:50;;;;;;;5.15;4.65;;;7.00;99.90;;;;;;5053435;28;20566;-77
2023/02/20 01:49:27;;;;;;;9.38;7.22;;;7.00;99.90;;;;;;5054604;28;20236;-82
2023/02/20 01:52:00;;;;;;;5.78;5.18;;;7.00;99.90;;;;;;5054632;28;20228;-82
2023/02/20 01:54:30;;;;;;;7.60;5.28;;;7.10;99.90;;;;;;5055641;28;20285;-82
2023/02/20 01:57:01;;;;;;;7.53;5.63;;;7.10;99.90;;;;;;5056712;28;20229;-76
2023/02/20 01:59:31;;;;;;;7.28;5.25;;;7.10;99.90;;;;;;5057079;28;20292;-77
2023/02/20 02:01:59;;;;;;;7.35;5.47;;;7.10;99.90;;;;;;5072208;28;20209;-82
2023/02/20 02:04:26;;;;;;;8.25;6.00;;;7.10;99.90;;;;;;5073403;28;20228;-77
2023/02/20 02:06:55;;;;;;;11.07;6.50;;;7.10;99.90;;;;;;5072119;28;20224;-78
2023/02/20 02:09:35;;;;;;;8.18;5.03;;;7.20;99.90;;;;;;5069963;28;20220;-78
2023/02/20 02:12:04;;;;;;;6.35;5.28;;;7.20;99.90;;;;;;5069554;28;20304;-78
2023/02/20 02:14:31;;;;;;;5.88;5.28;;;7.20;99.90;;;;;;5057183;28;20239;-84
2023/02/20 02:17:37;;;;;;;7.60;5.32;;;7.30;99.90;;;;;;5054913;28;20290;-77
2023/02/20 02:20:34;;;;;;;6.38;4.63;;;7.30;99.90;;;;;;5005316;28;20225;-83
2023/02/20 02:23:39;;;;;;;9.65;5.20;;;7.30;99.90;;;;;;5054571;28;20244;-82
2023/02/20 02:26:22;;;;;;;10.00;5.53;;;7.20;99.90;;;;;;5054768;28;20220;-81
2023/02/20 02:29:21;;;;;;;6.45;5.43;;;7.30;99.90;;;;;;5058230;28;20221;-82
2023/02/20 02:32:18;;;;;;;8.18;6.18;;;7.30;99.90;;;;;;5049509;28;20212;-77
2023/02/20 02:35:21;;;;;;;12.80;6.70;;;7.30;99.90;;;;;;5057398;28;20226;-83
2023/02/20 02:38:00;;;;;;;6.95;5.32;;;7.30;99.90;;;;;;5054450;28;20315;-83
2023/02/20 02:40:35;;;;;;;6.82;4.95;;;7.30;99.90;;;;;;5073420;28;20223;-83
2023/02/20 02:43:13;;;;;;;15.68;7.05;;;7.40;99.90;;;;;;5072726;28;20593;-83
2023/02/20 02:45:47;;;;;;;7.55;5.28;;;7.40;99.90;;;;;;5074108;28;20223;-83
2023/02/20 02:48:20;;;;;;;9.98;5.38;;;7.40;99.90;;;;;;5074060;28;20280;-82
2023/02/20 02:50:49;;;;;;;8.55;6.07;;;7.40;99.90;;;;;;5074908;28;20281;-84
2023/02/20 02:53:18;;;;;;;6.28;5.18;;;7.40;99.90;;;;;;5073976;28;20224;-77
2023/02/20 02:55:45;;;;;;;10.73;6.15;;;7.40;99.90;;;;;;5073885;28;20219;-83
2023/02/20 02:58:14;;;;;;;17.95;7.75;;;7.40;99.90;;;;;;5072280;28;20228;-83
2023/02/20 03:00:48;;;;;;;7.20;5.35;;;7.40;99.90;;;;;;5073474;28;20234;-83
2023/02/20 03:03:20;;;;;;;11.73;6.32;;;7.50;99.90;;;;;;5073108;28;20215;-82
2023/02/20 03:05:52;;;;;;;8.05;5.80;;;7.50;99.90;;;;;;5073921;28;20305;-83
2023/02/20 03:08:35;;;;;;;10.90;7.30;;;7.60;99.90;;;;;;5073786;28;20219;-82
2023/02/20 03:11:06;;;;;;;9.07;6.75;;;7.60;99.90;;;;;;5072776;28;20224;-77
2023/02/20 03:16:38;;;;;;;8.80;6.05;;;7.60;99.90;;;;;;5071860;28;20231;-78
2023/02/20 03:19:12;;;;;;;10.15;7.30;;;7.60;99.90;;;;;;5072603;28;20827;-77
2023/02/20 03:21:42;;;;;;;8.88;6.18;;;7.60;99.90;;;;;;5073679;28;20248;-78
2023/02/20 03:24:14;;;;;;;6.47;5.93;;;7.60;99.90;;;;;;5072738;28;20563;-77
2023/02/20 03:26:43;;;;;;;19.33;14.05;;;7.60;99.90;;;;;;5073695;28;20219;-84
2023/02/20 03:29:14;;;;;;;7.95;5.60;;;7.60;99.90;;;;;;5072701;28;20301;-78
2023/02/20 03:31:47;;;;;;;10.98;7.43;;;7.60;99.90;;;;;;5072238;28;20270;-77
2023/02/20 03:45:35;;;;;;;7.90;6.80;;;7.70;99.90;;;;;;5072619;28;20718;-78
2023/02/20 03:48:06;;;;;;;7.05;6.28;;;7.70;99.90;;;;;;5062610;28;20232;-76
2023/02/20 03:50:33;;;;;;;8.30;6.93;;;7.80;99.90;;;;;;5071441;28;20684;-77
2023/02/20 03:53:01;;;;;;;9.57;6.93;;;7.80;99.90;;;;;;5072319;28;20285;-76
2023/02/20 03:55:29;;;;;;;7.95;6.50;;;7.80;99.90;;;;;;5072972;28;20228;-78
2023/02/20 03:58:04;;;;;;;8.75;6.60;;;7.80;99.90;;;;;;5072271;28;20285;-78
2023/02/20 04:00:36;;;;;;;7.70;6.20;;;7.80;99.90;;;;;;5071980;28;20224;-78
2023/02/20 04:03:09;;;;;;;7.57;6.25;;;7.90;99.90;;;;;;5072897;28;20289;-77
2023/02/20 04:05:41;;;;;;;7.38;6.47;;;7.90;99.90;;;;;;5071407;28;20235;-77
2023/02/20 04:08:11;;;;;;;7.90;6.70;;;7.90;99.90;;;;;;5072558;28;20685;-83
2023/02/20 04:10:43;;;;;;;7.93;6.95;;;7.90;99.90;;;;;;5072093;28;20227;-77
2023/02/20 04:13:13;;;;;;;7.30;6.60;;;7.90;99.90;;;;;;5072911;28;20301;-77
2023/02/20 04:15:42;;;;;;;9.68;6.90;;;7.90;99.90;;;;;;5073989;28;20227;-83
2023/02/20 04:18:13;;;;;;;8.25;7.50;;;8.00;99.90;;;;;;5077045;28;20266;-77
2023/02/20 04:20:40;;;;;;;8.73;6.47;;;7.90;99.90;;;;;;5075188;28;20323;-76
2023/02/20 04:23:13;;;;;;;12.05;8.88;;;8.00;99.90;;;;;;5076490;28;20243;-83
2023/02/20 04:25:45;;;;;;;9.77;7.85;;;8.00;99.90;;;;;;5076187;28;20251;-82
2023/02/20 04:28:14;;;;;;;7.97;7.15;;;8.00;99.90;;;;;;5076592;28;20664;-77
2023/02/20 04:30:41;;;;;;;7.90;7.07;;;8.00;99.90;;;;;;5075885;28;20228;-77
2023/02/20 04:33:10;;;;;;;10.30;6.70;;;8.10;99.90;;;;;;5075953;28;20236;-83
2023/02/20 04:35:37;;;;;;;7.47;6.78;;;8.10;99.90;;;;;;5075982;28;20228;-82
2023/02/20 04:38:05;;;;;;;6.80;6.10;;;8.10;99.90;;;;;;5075709;28;20649;-82
2023/02/20 04:40:32;;;;;;;8.05;7.20;;;8.10;99.90;;;;;;5075438;28;20661;-82
2023/02/20 04:43:01;;;;;;;10.27;6.47;;;8.10;99.90;;;;;;5076513;28;20220;-82
2023/02/20 04:45:28;;;;;;;7.57;6.88;;;8.20;99.90;;;;;;5077968;28;20224;-77
2023/02/20 04:47:55;;;;;;;7.50;6.40;;;8.20;99.90;;;;;;5064939;28;21510;-83
2023/02/20 04:50:25;;;;;;;9.50;7.47;;;8.20;99.90;;;;;;5076982;28;20220;-82
2023/02/20 04:52:54;;;;;;;8.05;7.25;;;8.20;99.90;;;;;;5065943;28;20597;-82
2023/02/20 04:55:21;;;;;;;8.77;7.72;;;8.10;99.90;;;;;;5066011;28;20285;-82
2023/02/20 04:57:49;;;;;;;7.60;6.88;;;8.20;99.90;;;;;;5074850;28;20223;-76
2023/02/20 05:00:22;;;;;;;10.88;6.78;;;8.10;99.90;;;;;;5075517;28;20224;-77
2023/02/20 05:02:50;;;;;;;10.50;7.00;;;8.10;99.90;;;;;;5077607;28;20306;-83
2023/02/20 05:05:19;;;;;;;7.10;6.40;;;8.10;99.90;;;;;;5076438;28;20224;-82
2023/02/20 05:07:46;;;;;;;6.80;6.18;;;8.20;99.90;;;;;;5076207;28;20223;-82
2023/02/20 05:10:15;;;;;;;9.27;6.72;;;8.20;99.90;;;;;;5077657;28;20220;-82
2023/02/20 05:12:42;;;;;;;7.75;7.05;;;8.30;99.90;;;;;;5076207;28;20257;-77
2023/02/20 05:15:10;;;;;;;7.57;6.13;;;8.30;99.90;;;;;;5075433;28;20239;-83
2023/02/20 05:17:39;;;;;;;7.40;6.65;;;8.30;99.90;;;;;;5078075;28;20240;-77
2023/02/20 05:20:07;;;;;;;8.00;7.22;;;8.30;99.90;;;;;;5073929;28;20220;-77
2023/02/20 05:22:33;;;;;;;8.55;7.40;;;8.30;99.90;;;;;;5076580;28;20242;-77
2023/02/20 05:25:01;;;;;;;8.13;7.32;;;8.30;99.90;;;;;;5076042;28;20224;-77
2023/02/20 05:27:28;;;;;;;8.55;7.32;;;8.40;99.90;;;;;;5078205;28;20285;-78
2023/02/20 05:29:58;;;;;;;7.80;6.90;;;8.40;99.90;;;;;;5078691;28;20254;-83
2023/02/20 05:32:27;;;;;;;7.55;6.82;;;8.30;99.90;;;;;;5087504;28;20282;-83
2023/02/20 05:34:56;;;;;;;7.97;7.25;;;8.40;99.90;;;;;;5081681;28;20584;-83
2023/02/20 05:37:25;;;;;;;8.75;7.85;;;8.40;99.90;;;;;;5087727;28;20258;-83
2023/02/20 05:39:52;;;;;;;7.60;6.80;;;8.40;99.90;;;;;;5085919;28;20231;-78
2023/02/20 05:42:22;;;;;;;6.95;6.25;;;8.40;99.90;;;;;;5088132;28;20239;-84
2023/02/20 05:44:50;;;;;;;7.68;7.03;;;8.40;99.90;;;;;;5076583;28;20639;-83
2023/02/20 05:47:17;;;;;;;8.57;7.72;;;8.50;99.90;;;;;;5079857;28;20521;-83
2023/02/20 05:49:44;;;;;;;8.38;7.45;;;8.50;99.90;;;;;;5078917;28;20246;-83
2023/02/20 05:52:13;;;;;;;11.85;9.07;;;8.50;99.90;;;;;;5078412;28;20599;-77
2023/02/20 05:54:41;;;;;;;11.75;9.05;;;8.50;99.90;;;;;;5078588;28;20224;-82
2023/02/20 05:57:13;;;;;;;11.98;10.07;;;8.50;99.90;;;;;;5077536;28;20289;-83
2023/02/20 05:59:40;;;;;;;10.88;9.20;;;8.50;99.90;;;;;;5081447;28;20223;-83
2023/02/20 06:02:07;;;;;;;9.98;8.35;;;8.60;99.90;;;;;;5075023;28;20224;-77
2023/02/20 06:04:37;;;;;;;8.27;7.50;;;8.60;99.90;;;;;;5076038;28;20216;-82
2023/02/20 06:07:04;;;;;;;9.43;8.05;;;8.50;99.90;;;;;;5068842;28;20216;-77
2023/02/20 06:09:33;;;;;;;10.13;9.13;;;8.50;99.90;;;;;;5076370;28;20223;-77
2023/02/20 06:12:00;;;;;;;9.48;8.48;;;8.60;99.90;;;;;;5075443;28;20224;-77
2023/02/20 06:14:27;;;;;;;8.75;7.85;;;8.50;99.90;;;;;;5071805;28;20273;-77
2023/02/20 06:16:56;;;;;;;8.88;7.68;;;8.50;99.90;;;;;;5077345;28;20258;-83
2023/02/20 06:19:25;;;;;;;9.63;7.95;;;8.50;99.90;;;;;;5077209;28;20315;-82
2023/02/20 06:21:54;;;;;;;7.70;6.90;;;8.50;99.90;;;;;;5077581;28;20584;-76
2023/02/20 06:24:21;;;;;;;8.38;7.47;;;8.50;99.90;;;;;;5073350;28;20231;-82
2023/02/20 06:26:51;;;;;;;8.00;6.60;;;8.50;99.90;;;;;;5075634;28;20551;-77
2023/02/20 06:29:19;;;;;;;9.75;8.50;;;8.60;99.90;;;;;;5069909;28;20224;-77
2023/02/20 06:31:47;;;;;;;13.43;10.95;;;8.50;99.90;;;;;;5073417;28;20223;-77
2023/02/20 06:34:19;;;;;;;8.98;8.00;;;8.60;99.90;;;;;;5062462;28;20311;-78
2023/02/20 06:36:47;;;;;;;10.32;8.82;;;8.60;99.90;;;;;;5078492;28;20224;-82
2023/02/20 06:39:20;;;;;;;9.93;8.63;;;8.50;99.90;;;;;;5078188;28;20232;-84
2023/02/20 06:41:47;;;;;;;10.13;8.50;;;8.50;99.90;;;;;;5073037;28;20273;-77
2023/02/20 06:44:19;;;;;;;9.73;8.80;;;8.50;99.90;;;;;;5075028;28;20286;-82
2023/02/20 06:46:47;;;;;;;8.63;7.65;;;8.50;99.90;;;;;;5075517;28;20224;-83
2023/02/20 06:49:17;;;;;;;11.02;7.63;;;8.60;99.90;;;;;;5057724;28;20600;-83
2023/02/20 06:51:44;;;;;;;15.07;12.05;;;8.60;99.90;;;;;;5056481;28;20630;-78
2023/02/20 06:54:13;;;;;;;15.85;12.70;;;8.50;99.90;;;;;;5055538;28;20220;-77
2023/02/20 06:56:43;;;;;;;13.23;11.82;;;8.60;99.90;;;;;;5073388;28;20228;-77
2023/02/20 06:59:15;;;;;;;12.10;10.55;;;8.50;99.90;;;;;;5055856;28;20235;-77
2023/02/20 07:04:27;;;;;;;11.40;10.20;;;8.50;99.90;;;;;;5070952;28;20224;-78
2023/02/20 07:06:58;;;;;;;13.43;11.82;;;8.60;99.90;;;;;;5073601;28;20238;-84
2023/02/20 07:09:26;;;;;;;12.02;9.82;;;8.60;99.90;;;;;;5075362;28;20255;-82
2023/02/20 07:11:58;;;;;;;12.15;10.85;;;8.70;99.90;;;;;;5072205;28;20269;-78
2023/02/20 07:14:25;;;;;;;12.23;9.70;;;8.70;99.90;;;;;;5072836;28;20300;-77
2023/02/20 07:17:03;;;;;;;11.52;10.32;;;8.70;99.90;;;;;;5073828;28;20615;-77
2023/02/20 07:19:34;;;;;;;11.07;9.98;;;8.70;99.90;;;;;;5072812;28;20228;-82
2023/02/20 07:22:03;;;;;;;15.63;13.77;;;8.70;99.90;;;;;;5048100;28;20224;-82
2023/02/20 07:24:35;;;;;;;15.45;13.23;;;8.70;99.90;;;;;;5074526;28;20413;-82
2023/02/20 07:27:03;;;;;;;17.45;13.63;;;8.70;99.90;;;;;;5071561;28;20222;-82
2023/02/20 07:29:31;;;;;;;14.35;12.73;;;8.80;99.90;;;;;;5073925;28;20307;-82
2023/02/20 07:31:59;;;;;;;13.27;11.98;;;8.80;99.90;;;;;;5073013;28;20292;-83
2023/02/20 07:34:30;;;;;;;12.98;11.57;;;8.80;99.90;;;;;;5074661;28;20216;-83
2023/02/20 07:37:02;;;;;;;12.95;11.27;;;8.90;99.90;;;;;;5071860;28;20250;-77
2023/02/20 07:39:37;;;;;;;12.68;11.40;;;8.80;99.90;;;;;;5055592;28;20234;-76
2023/02/20 07:42:07;;;;;;;13.90;12.43;;;8.80;99.90;;;;;;5072593;28;20230;-77
2023/02/20 07:44:40;;;;;;;12.55;11.13;;;8.90;99.90;;;;;;5055192;28;20216;-78
2023/02/20 07:47:14;;;;;;;11.93;10.73;;;8.90;99.90;;;;;;5055688;28;20307;-83
2023/02/20 07:49:52;;;;;;;15.32;11.75;;;8.90;99.90;;;;;;5056824;28;20219;-83
2023/02/20 07:52:20;;;;;;;14.18;10.82;;;8.90;99.90;;;;;;5078600;28;20561;-82
2023/02/20 07:54:48;;;;;;;11.63;10.32;;;8.90;99.90;;;;;;5058079;28;20227;-83
2023/02/20 07:57:15;;;;;;;12.20;10.60;;;9.00;99.90;;;;;;5077500;28;20236;-83
2023/02/20 07:59:56;;;;;;;12.40;11.10;;;9.00;99.90;;;;;;5076107;28;20224;-83
2023/02/20 08:02:33;;;;;;;11.98;10.77;;;9.00;99.90;;;;;;5075573;28;20228;-81
2023/02/20 08:05:03;;;;;;;9.90;8.80;;;9.00;99.90;;;;;;5068823;28;20321;-82
2023/02/20 08:07:34;;;;;;;9.98;8.60;;;9.00;99.90;;;;;;5049567;28;20309;-82
2023/02/20 08:10:04;;;;;;;10.60;9.50;;;9.10;99.90;;;;;;5075802;28;20232;-77
2023/02/20 08:12:45;;;;;;;10.60;9.60;;;9.10;99.90;;;;;;5066724;28;20522;-82
2023/02/20 08:18:05;;;;;;;9.95;8.63;;;9.20;99.90;;;;;;5065239;28;20224;-77
2023/02/20 08:23:22;;;;;;;9.10;8.15;;;9.20;99.90;;;;;;5053801;28;20224;-76
2023/02/20 08:25:58;;;;;;;8.23;7.45;;;9.30;99.90;;;;;;5076139;28;20235;-82
2023/02/20 08:28:26;;;;;;;9.15;8.35;;;9.30;99.90;;;;;;5048629;28;20294;-77
2023/02/20 08:30:54;;;;;;;8.90;7.70;;;9.30;99.90;;;;;;5076849;28;20219;-77
2023/02/20 08:33:26;;;;;;;9.55;8.23;;;9.30;99.90;;;;;;5076502;28;20232;-77
2023/02/20 08:38:40;;;;;;;12.82;8.95;;;9.30;99.90;;;;;;5078829;28;20231;-77
2023/02/20 08:41:12;;;;;;;7.88;7.18;;;9.40;99.90;;;;;;5080467;28;20228;-83
2023/02/20 08:43:46;;;;;;;9.50;8.05;;;9.40;99.90;;;;;;5077599;28;20565;-77
2023/02/20 08:46:21;;;;;;;8.45;7.00;;;9.40;99.90;;;;;;5080735;28;20239;-82
2023/02/20 08:48:49;;;;;;;7.55;6.70;;;9.50;99.90;;;;;;5067291;28;20228;-83
2023/02/20 08:51:27;;;;;;;8.43;7.50;;;9.50;99.90;;;;;;5068003;28;20220;-82
2023/02/20 08:53:55;;;;;;;8.57;7.78;;;9.50;99.90;;;;;;5079576;28;20232;-77
2023/02/20 08:56:22;;;;;;;8.90;8.10;;;9.60;99.90;;;;;;5076515;28;20688;-77
2023/02/20 08:58:50;;;;;;;10.52;8.00;;;9.60;99.90;;;;;;5080293;28;20266;-83
2023/02/20 09:01:19;;;;;;;8.20;7.40;;;9.60;99.90;;;;;;5083137;28;20250;-77
2023/02/20 09:03:48;;;;;;;11.57;8.23;;;9.60;99.90;;;;;;5072340;28;20303;-78
2023/02/20 09:06:17;;;;;;;7.60;6.78;;;9.70;99.90;;;;;;5085604;28;20665;-77
2023/02/20 09:08:47;;;;;;;9.30;7.50;;;9.70;99.90;;;;;;5055647;28;20232;-77
2023/02/20 09:11:19;;;;;;;7.03;6.35;;;9.70;99.90;;;;;;5077054;28;20294;-83
2023/02/20 09:13:48;;;;;;;7.85;6.95;;;9.80;99.90;;;;;;5081800;28;20224;-84
2023/02/20 09:16:18;;;;;;;7.38;6.63;;;9.80;99.90;;;;;;5077477;28;20228;-77
2023/02/20 09:18:45;;;;;;;10.60;7.90;;;9.80;99.90;;;;;;5075255;28;20232;-78
2023/02/20 09:21:16;;;;;;;8.02;7.13;;;9.90;99.90;;;;;;5075291;28;20275;-76
2023/02/20 09:23:45;;;;;;;7.50;6.80;;;9.90;99.90;;;;;;5075778;28;20227;-76
2023/02/20 09:26:14;;;;;;;8.73;7.88;;;9.90;99.90;;;;;;5059822;28;20228;-82
2023/02/20 09:28:46;;;;;;;8.60;7.53;;;9.90;99.90;;;;;;5072886;28;20227;-76
2023/02/20 09:31:20;;;;;;;12.55;10.18;;;10.00;99.90;;;;;;5074701;28;20219;-77
2023/02/20 09:33:59;;;;;;;12.82;9.93;;;10.00;99.90;;;;;;5064498;28;20227;-78
2023/02/20 09:36:29;;;;;;;9.18;7.00;;;10.10;99.90;;;;;;5057869;28;20234;-77
2023/02/20 09:42:04;;;;;;;6.28;5.68;;;10.10;99.90;;;;;;5056853;28;20220;-83
2023/02/20 09:44:46;;;;;;;10.13;6.00;;;10.20;99.90;;;;;;5070291;28;20608;-82
2023/02/20 09:47:31;;;;;;;6.50;5.90;;;10.20;99.90;;;;;;5054591;28;20228;-77
2023/02/20 09:50:08;;;;;;;6.40;5.40;;;10.20;99.90;;;;;;5054178;28;20279;-77
2023/02/20 09:52:43;;;;;;;7.30;6.50;;;10.30;99.90;;;;;;5055908;28;20300;-83
2023/02/20 09:55:19;;;;;;;6.65;6.05;;;10.40;99.90;;;;;;5058567;28;20303;-77
2023/02/20 09:57:50;;;;;;;9.40;6.40;;;10.40;99.90;;;;;;5059322;28;20728;-82
2023/02/20 10:00:26;;;;;;;7.47;6.78;;;10.40;99.90;;;;;;5061468;28;20231;-83
2023/02/20 10:03:14;;;;;;;8.35;7.00;;;10.40;99.90;;;;;;5057708;28;20303;-78
2023/02/20 10:08:25;;;;;;;5.63;5.13;;;10.50;99.90;;;;;;5044638;28;20255;-83
2023/02/20 10:11:03;;;;;;;6.45;5.80;;;10.60;99.90;;;;;;5056637;28;20225;-77
2023/02/20 10:13:46;;;;;;;9.40;7.25;;;10.60;99.90;;;;;;5054911;28;20224;-83
2023/02/20 10:16:25;;;;;;;8.30;6.78;;;10.70;99.90;;;;;;5054635;28;20581;-82
2023/02/20 10:19:08;;;;;;;7.55;6.75;;;10.60;99.90;;;;;;5055612;28;20323;-77
2023/02/20 10:21:50;;;;;;;15.55;12.75;;;10.60;99.90;;;;;;5053399;28;20220;-77
2023/02/20 10:24:38;;;;;;;13.40;10.20;;;10.70;99.90;;;;;;5053435;28;20229;-77
2023/02/20 10:27:18;;;;;;;8.30;6.85;;;10.70;99.90;;;;;;5054931;28;20232;-83
2023/02/20 10:29:47;;;;;;;7.85;5.80;;;10.70;99.90;;;;;;5054388;28;20623;-77
2023/02/20 10:32:21;;;;;;;8.85;5.80;;;10.70;99.90;;;;;;5053836;28;20737;-76
2023/02/20 10:38:23;;;;;;;9.77;6.85;;;10.80;99.90;;;;;;5028394;28;20247;-77
2023/02/20 10:40:59;;;;;;;8.48;5.70;;;10.90;99.90;;;;;;5053362;28;20722;-77
2023/02/20 10:43:32;;;;;;;7.82;5.70;;;10.80;99.90;;;;;;5053975;28;20221;-82
2023/02/20 10:46:13;;;;;;;5.15;4.65;;;10.90;99.90;;;;;;5054211;28;20243;-77
2023/02/20 10:48:41;;;;;;;10.82;6.80;;;10.90;99.90;;;;;;5055317;28;20216;-76
2023/02/20 10:51:11;;;;;;;8.63;6.32;;;11.00;99.90;;;;;;5055557;28;20278;-82
2023/02/20 10:53:47;;;;;;;6.00;5.40;;;11.00;99.90;;;;;;5055208;28;20599;-76
2023/02/20 10:56:22;;;;;;;6.00;5.47;;;11.10;99.90;;;;;;5054193;28;20220;-77
2023/02/20 10:58:59;;;;;;;5.70;5.10;;;11.20;99.90;;;;;;5057309;28;20248;-80
2023/02/20 11:01:28;;;;;;;7.22;5.53;;;11.20;99.90;;;;;;5064583;28;20220;-77
2023/02/20 11:04:01;;;;;;;6.10;5.50;;;11.20;99.90;;;;;;5057085;28;20223;-77
2023/02/20 11:06:33;;;;;;;8.82;5.80;;;11.20;99.90;;;;;;5070338;28;20566;-82
2023/02/20 11:09:00;;;;;;;8.93;5.60;;;11.30;99.90;;;;;;5063038;28;20243;-77
2023/02/20 11:11:35;;;;;;;9.70;5.20;;;11.30;99.90;;;;;;5062431;28;20224;-78
2023/02/20 11:14:15;;;;;;;6.68;5.05;;;11.40;99.90;;;;;;5062722;28;20227;-82
2023/02/20 11:16:47;;;;;;;7.70;4.90;;;11.30;99.90;;;;;;5058662;28;20605;-77
2023/02/20 11:19:20;;;;;;;13.82;10.70;;;11.40;99.90;;;;;;5054846;28;20221;-77
2023/02/20 11:21:49;;;;;;;12.32;7.25;;;11.30;99.90;;;;;;5053981;28;20262;-77
2023/02/20 11:24:29;;;;;;;6.53;5.22;;;11.40;99.90;;;;;;5053971;28;20314;-76
2023/02/20 11:27:03;;;;;;;5.55;4.95;;;11.40;99.90;;;;;;5053468;28;20220;-81
2023/02/20 11:29:48;;;;;;;6.15;5.22;;;11.50;99.90;;;;;;5054889;28;20224;-77
2023/02/20 11:32:33;;;;;;;6.00;5.05;;;11.50;99.90;;;;;;5053524;28;20683;-77
2023/02/20 11:35:32;;;;;;;8.18;6.00;;;11.60;99.90;;;;;;5053992;28;20224;-77
2023/02/20 11:38:27;;;;;;;8.57;5.80;;;11.60;99.90;;;;;;5053614;28;20557;-76
2023/02/20 11:41:13;;;;;;;8.85;6.50;;;11.60;99.90;;;;;;5050894;28;20221;-77
2023/02/20 11:43:42;;;;;;;7.72;6.35;;;11.60;99.90;;;;;;5053324;28;20693;-82
2023/02/20 11:46:21;;;;;;;6.00;5.38;;;11.60;99.90;;;;;;5052829;28;20225;-82
2023/02/20 11:49:01;;;;;;;7.82;6.45;;;11.70;99.90;;;;;;5054317;28;20582;-81
2023/02/20 11:51:39;;;;;;;7.40;6.30;;;11.70;99.90;;;;;;5053272;28;20217;-76
2023/02/20 11:54:14;;;;;;;9.73;6.18;;;11.70;99.90;;;;;;5053060;28;20254;-76
2023/02/20 11:56:55;;;;;;;8.10;5.65;;;11.70;99.90;;;;;;5049544;28;20231;-82
2023/02/20 11:59:32;;;;;;;8.25;6.78;;;11.80;99.90;;;;;;5053742;28;20626;-76
2023/02/20 12:02:28;;;;;;;7.57;5.70;;;11.70;99.90;;;;;;5050186;28;20224;-76
2023/02/20 12:05:11;;;;;;;9.73;7.78;;;11.70;99.90;;;;;;5052223;28;20220;-82
2023/02/20 12:07:41;;;;;;;9.45;8.50;;;11.70;99.90;;;;;;5053111;28;20240;-82
2023/02/20 12:10:30;;;;;;;8.18;7.38;;;11.70;99.90;;;;;;5052893;28;20255;-82
2023/02/20 12:12:58;;;;;;;11.00;7.30;;;11.70;99.90;;;;;;5051007;28;20309;-77
2023/02/20 12:15:27;;;;;;;8.05;7.25;;;11.70;99.90;;;;;;5053345;28;20227;-77
2023/02/20 12:18:27;;;;;;;8.63;7.80;;;11.70;99.90;;;;;;5052790;28;20574;-82
2023/02/20 12:21:10;;;;;;;9.32;8.05;;;11.70;99.90;;;;;;5052671;28;20225;-77
2023/02/20 12:23:48;;;;;;;8.45;7.40;;;11.70;99.90;;;;;;5053077;28;20239;-80
2023/02/20 12:26:30;;;;;;;8.50;7.32;;;11.80;99.90;;;;;;5053669;28;20274;-82
2023/02/20 12:29:10;;;;;;;8.90;8.00;;;11.80;99.90;;;;;;5053499;28;20225;-82
2023/02/20 12:31:51;;;;;;;8.82;8.02;;;11.80;99.90;;;;;;5053530;28;20232;-83
2023/02/20 12:34:41;;;;;;;9.45;8.60;;;11.90;99.90;;;;;;5053900;28;20220;-82
2023/02/20 12:37:18;;;;;;;11.00;9.68;;;11.90;99.90;;;;;;5049419;28;20583;-77
2023/02/20 12:40:00;;;;;;;8.85;7.60;;;11.80;99.90;;;;;;5068677;28;20281;-76
2023/02/20 12:42:36;;;;;;;8.43;7.45;;;11.80;99.90;;;;;;5075724;28;20224;-77
2023/02/20 12:45:26;;;;;;;9.27;8.32;;;11.80;99.90;;;;;;5075675;28;20238;-77
2023/02/20 12:48:09;;;;;;;9.68;8.50;;;11.90;99.90;;;;;;5073176;28;20231;-76
2023/02/20 12:50:48;;;;;;;12.73;10.10;;;11.80;99.90;;;;;;5070249;28;20673;-77
2023/02/20 12:53:43;;;;;;;11.02;9.05;;;11.80;99.90;;;;;;5074690;28;20219;-77
2023/02/20 12:56:38;;;;;;;13.55;9.35;;;11.80;99.90;;;;;;5074894;28;20535;-77
2023/02/20 12:59:16;;;;;;;14.68;10.80;;;11.80;99.90;;;;;;5074573;28;20254;-82
2023/02/20 13:01:44;;;;;;;9.80;8.80;;;11.70;99.90;;;;;;5076292;28;20227;-82
2023/02/20 13:04:22;;;;;;;11.02;9.50;;;11.80;99.90;;;;;;5075630;28;20232;-82
2023/02/20 13:06:56;;;;;;;11.20;10.00;;;11.80;99.90;;;;;;5067086;28;20228;-83
2023/02/20 13:09:30;;;;;;;11.63;10.45;;;11.80;99.90;;;;;;5076565;28;20224;-82
2023/02/20 13:12:02;;;;;;;15.00;12.90;;;11.80;99.90;;;;;;5076141;28;20296;-82
2023/02/20 13:14:39;;;;;;;15.85;14.35;;;11.80;99.90;;;;;;5065000;28;20223;-82
2023/02/20 13:17:18;;;;;;;14.50;11.40;;;11.70;99.90;;;;;;5075807;28;20224;-77
2023/02/20 13:19:55;;;;;;;15.85;13.27;;;11.70;99.90;;;;;;5075696;28;20219;-77
2023/02/20 13:22:22;;;;;;;14.60;12.80;;;11.70;99.90;;;;;;5075973;28;20223;-82
2023/02/20 13:24:50;;;;;;;12.55;11.25;;;11.70;99.90;;;;;;5075813;28;20696;-76
2023/02/20 13:27:30;;;;;;;17.92;13.40;;;11.70;99.90;;;;;;5074900;28;20647;-76
2023/02/20 13:29:59;;;;;;;13.70;12.30;;;11.70;99.90;;;;;;5075003;28;20220;-77
2023/02/20 13:32:29;;;;;;;13.05;11.75;;;11.60;99.90;;;;;;5075026;28;20220;-76
2023/02/20 13:35:30;;;;;;;15.32;12.35;;;11.60;99.90;;;;;;5075756;28;20616;-77
2023/02/20 13:38:10;;;;;;;14.95;12.05;;;11.60;99.90;;;;;;5082066;28;20223;-76
2023/02/20 13:40:45;;;;;;;22.42;12.35;;;11.60;99.90;;;;;;5075056;28;20227;-76
2023/02/20 13:43:29;;;;;;;15.18;12.68;;;11.50;99.90;;;;;;5074076;28;20227;-76
2023/02/20 13:46:24;;;;;;;17.30;13.68;;;11.50;99.90;;;;;;5076489;28;20311;-82
2023/02/20 13:48:53;;;;;;;13.43;11.93;;;11.50;99.90;;;;;;5076114;28;20235;-77
2023/02/20 13:51:34;;;;;;;13.60;11.73;;;11.50;99.90;;;;;;5079135;28;20270;-82
2023/02/20 13:54:20;;;;;;;17.85;13.05;;;11.40;99.90;;;;;;5076312;28;20228;-77